map of ADX home
ADX - Airport
Location
City:  St. Andrews, Fife, Scotland, United Kingdom
Name:Leuchars
ICAO:EGQL
IATA:ADX

Details
Type:Airport (Aerodrome, Airfield)
Use:Military, International (customs port of entry)
Latitude:5622'22"N (56.372889)
Longitude:252'06"W (-2.868443)
Datum:WGS 1984
Elevation:38 ft (12 m)
Variation:2.02W (WMM2015 magnetic declination)
0.17 annual change
Runways:2
Longest:8491 × 150 ft (2588 × 45.5 m), paved

Time
Time Zone:UTC+0 (DST+1)
Local Time:

Weather
METAR:EGQL 230650Z 27023KT 9999 SCT036 SCT050 12/08 Q1020 BLU

Related Locations
Nearby:
Farthest:SZS: 11672 mi / 18784 km
Ryan's Creek, Stewart Island, STL, NZ

Find:

   beyond  
but within

Other Information
Maps:
NOTAMs:
Links:
Sources:

  
  • flag of United Kingdom
  • flag of Scotland
  

Sectional Chart

Flight Planning
at skyvector.com

Satellite Image

Google Maps Satellite view

 

Copyright © 2004-2018 Karl L. Swartz. All rights reserved.
The Great Circle Mapper name and logo are trademarks of the Great Circle Mapper.
All other trademarks mentioned herein belong to their respective owners.
Please see credits for attibutions and further copyright information.

  Follow gcmap on Facebook Follow gcmap on Twitter Follow gcmap on Google+ GCmap on LinkedIn

hCard Microformat

Geo Microformat